createdAt,value
2018-11-22T12:16:48.283Z,34.73
2018-11-22T12:19:16.770Z,33.00
2018-11-22T12:21:45.210Z,34.60
2018-11-22T12:24:13.703Z,36.93
2018-11-22T12:26:42.151Z,36.77
2018-11-22T12:29:10.621Z,32.60
2018-11-22T12:31:39.064Z,38.43
2018-11-22T12:34:12.821Z,29.07
2018-11-22T12:36:46.508Z,24.23
2018-11-22T12:39:16.039Z,24.80
2018-11-22T12:41:44.703Z,29.90
2018-11-22T12:44:13.166Z,29.23
2018-11-22T12:46:41.621Z,25.57
2018-11-22T12:49:10.072Z,31.30
2018-11-22T12:51:38.535Z,32.67
2018-11-22T12:54:06.989Z,20.47
2018-11-22T12:56:35.464Z,26.83
2018-11-22T12:59:03.915Z,28.30
2018-11-22T13:01:32.405Z,29.17
2018-11-22T13:04:00.860Z,30.90
2018-11-22T13:06:29.332Z,31.60
2018-11-22T13:08:57.769Z,30.30
2018-11-22T13:11:26.227Z,27.90
2018-11-22T13:13:54.672Z,32.17
2018-11-22T13:16:23.138Z,31.90
2018-11-22T13:18:51.563Z,28.83
2018-11-22T13:21:20.031Z,31.80
2018-11-22T13:23:48.489Z,28.50
2018-11-22T13:26:16.944Z,27.03
2018-11-22T13:28:45.450Z,24.17
2018-11-22T13:31:13.895Z,28.63
2018-11-22T13:33:42.315Z,29.40
2018-11-22T13:36:10.792Z,26.27
2018-11-22T13:38:39.231Z,25.93
2018-11-22T13:41:07.702Z,26.33
2018-11-22T13:43:36.157Z,28.27
2018-11-22T13:46:05.409Z,27.20
2018-11-22T13:48:33.131Z,28.53
2018-11-22T13:51:01.556Z,29.20
2018-11-22T13:53:30.013Z,26.77
2018-11-22T13:55:58.459Z,25.40
2018-11-22T13:58:26.921Z,31.10
2018-11-22T14:01:00.472Z,28.63
2018-11-22T14:03:28.957Z,27.30
2018-11-22T14:05:57.428Z,27.37
2018-11-22T14:08:25.887Z,26.03
2018-11-22T14:10:58.416Z,27.20
2018-11-22T14:13:22.807Z,29.20
2018-11-22T14:15:51.247Z,31.10
2018-11-22T14:18:19.711Z,28.90
2018-11-22T14:20:48.146Z,32.47
2018-11-22T14:23:16.640Z,44.77
2018-11-22T14:25:49.006Z,30.67
2018-11-22T14:28:13.555Z,31.00
2018-11-22T14:30:42.012Z,29.50
2018-11-22T14:33:10.586Z,27.93
2018-11-22T14:35:39.143Z,30.00
2018-11-22T14:38:07.610Z,30.73
2018-11-22T14:40:36.066Z,28.00
2018-11-22T14:43:04.509Z,27.30
2018-11-22T14:45:33.143Z,29.77
2018-11-22T14:48:02.651Z,28.20
2018-11-22T14:50:33.868Z,27.93
2018-11-22T14:53:09.758Z,21.90
2018-11-22T14:55:38.621Z,26.10
2018-11-22T14:58:07.493Z,29.67
2018-11-22T15:00:35.996Z,26.70
2018-11-22T15:03:04.478Z,31.90
2018-11-22T15:05:32.935Z,34.30
2018-11-22T15:08:01.427Z,35.50
2018-11-22T15:10:29.887Z,31.83
2018-11-22T15:12:58.345Z,31.67
2018-11-22T15:15:27.662Z,34.63
2018-11-22T15:17:56.098Z,35.70
2018-11-22T15:20:24.643Z,35.77
2018-11-22T15:22:53.863Z,34.13
2018-11-22T15:25:23.774Z,38.27
2018-11-22T15:27:52.299Z,28.90
2018-11-22T15:30:22.290Z,33.20
2018-11-22T15:32:50.907Z,27.03
2018-11-22T15:35:20.747Z,40.40
2018-11-22T15:37:49.570Z,32.40
2018-11-22T15:40:19.267Z,36.37
2018-11-22T15:42:49.239Z,34.50
2018-11-22T15:45:19.052Z,35.70
2018-11-22T15:47:47.757Z,38.60
2018-11-22T15:50:18.393Z,35.43
2018-11-22T15:52:47.137Z,34.80
2018-11-22T15:55:20.886Z,40.10
2018-11-22T15:57:46.379Z,38.20
2018-11-22T16:00:17.653Z,36.53
2018-11-22T16:02:46.752Z,39.17
2018-11-22T16:05:15.727Z,42.40
2018-11-22T16:07:44.316Z,34.33
2018-11-22T16:10:15.552Z,38.83
2018-11-22T16:12:44.299Z,40.57
2018-11-22T16:15:19.453Z,42.30
2018-11-22T16:17:48.005Z,38.00
2018-11-22T16:20:16.461Z,38.50
2018-11-22T16:22:45.078Z,35.23
2018-11-22T16:25:13.984Z,32.63
2018-11-22T16:27:43.290Z,39.90
2018-11-22T16:30:28.480Z,38.80
2018-11-22T16:32:56.984Z,40.80
2018-11-22T16:35:28.772Z,40.57
2018-11-22T16:37:54.947Z,35.63
2018-11-22T16:40:24.704Z,37.27
2018-11-22T16:42:54.177Z,38.67
2018-11-22T16:45:37.985Z,36.80
2018-11-22T16:48:08.649Z,39.47
2018-11-22T16:50:38.479Z,39.30
2018-11-22T16:53:07.101Z,43.77
2018-11-22T16:55:35.563Z,45.00
2018-11-22T16:58:04.491Z,38.70
2018-11-22T17:00:35.252Z,41.07
2018-11-22T17:03:05.979Z,37.80
2018-11-22T17:05:35.026Z,42.43
2018-11-22T17:08:04.305Z,36.37
2018-11-22T17:10:33.304Z,37.83
2018-11-22T17:13:02.760Z,40.90
2018-11-22T17:15:32.656Z,40.53
2018-11-22T17:18:01.514Z,44.93
2018-11-22T17:20:30.940Z,44.47
2018-11-22T17:22:59.599Z,38.63
2018-11-22T17:25:30.195Z,47.30
2018-11-22T17:28:00.922Z,43.63
2018-11-22T17:30:34.776Z,43.77
2018-11-22T17:33:03.232Z,40.63
2018-11-22T17:35:32.280Z,43.80
2018-11-22T17:38:01.989Z,44.07
2018-11-22T17:40:32.732Z,45.13
2018-11-22T17:43:01.182Z,45.03
2018-11-22T17:45:30.990Z,45.20
2018-11-22T17:47:59.455Z,42.23
2018-11-22T17:50:29.600Z,51.50
2018-11-22T17:52:58.049Z,44.03
2018-11-22T17:55:27.642Z,43.43
2018-11-22T17:57:56.107Z,50.40
2018-11-22T18:00:25.992Z,45.83
2018-11-22T18:02:55.686Z,48.63
2018-11-22T18:05:27.384Z,50.80
2018-11-22T18:07:52.689Z,47.70
2018-11-22T18:10:23.662Z,47.07
2018-11-22T18:12:53.203Z,51.23
2018-11-22T18:15:22.387Z,52.30
2018-11-22T18:17:51.494Z,55.77
2018-11-22T18:20:22.671Z,48.73
2018-11-22T18:22:52.052Z,54.23
2018-11-22T18:25:21.811Z,48.47
2018-11-22T18:27:50.358Z,46.27
2018-11-22T18:30:22.138Z,47.10
2018-11-22T18:32:52.011Z,50.10
2018-11-22T18:35:20.471Z,49.37
2018-11-22T18:37:48.938Z,50.43
2018-11-22T18:40:26.083Z,55.33
2018-11-22T18:42:55.578Z,47.17
2018-11-22T18:45:29.261Z,43.37
2018-11-22T18:47:57.724Z,52.83
2018-11-22T18:50:27.362Z,52.90
2018-11-22T18:52:55.828Z,53.10
2018-11-22T18:55:24.283Z,59.83
2018-11-22T18:57:52.763Z,53.33
2018-11-22T19:00:23.620Z,51.80
2018-11-22T19:02:52.952Z,46.67
2018-11-22T19:05:21.537Z,51.10
2018-11-22T19:07:50.756Z,54.13
2018-11-22T19:10:21.816Z,50.23
2018-11-22T19:12:51.363Z,50.10
2018-11-22T19:15:21.137Z,52.93
2018-11-22T19:17:49.985Z,53.30
2018-11-22T19:20:22.874Z,57.90
2018-11-22T19:22:52.119Z,47.57
2018-11-22T19:25:21.244Z,51.17
2018-11-22T19:27:49.883Z,46.63
2018-11-22T19:30:26.194Z,51.67
2018-11-22T19:32:55.831Z,48.43
2018-11-22T19:35:25.852Z,45.10
2018-11-22T19:37:54.336Z,59.17
2018-11-22T19:40:30.632Z,50.73
2018-11-22T19:43:01.427Z,47.70
2018-11-22T19:45:31.186Z,55.17
2018-11-22T19:47:59.687Z,48.10
2018-11-22T19:50:28.913Z,45.33
2018-11-22T19:52:58.477Z,52.80
2018-11-22T19:55:28.257Z,52.13
2018-11-22T19:57:59.052Z,49.17
2018-11-22T20:00:28.243Z,53.03
2018-11-22T20:02:57.830Z,53.87
2018-11-22T20:05:27.280Z,52.53
2018-11-22T20:07:58.069Z,45.10
2018-11-22T20:10:28.060Z,54.23
2018-11-22T20:12:56.532Z,55.53
2018-11-22T20:15:25.055Z,55.87
2018-11-22T20:17:53.899Z,51.70
2018-11-22T20:20:23.102Z,49.93
2018-11-22T20:22:51.937Z,52.10
2018-11-22T20:25:20.442Z,53.00
2018-11-22T20:27:49.629Z,48.30
2018-11-22T20:30:34.229Z,53.53
2018-11-22T20:33:02.956Z,48.83
2018-11-22T20:35:32.088Z,40.07
2018-11-22T20:38:00.590Z,49.27
2018-11-22T20:40:29.517Z,46.50
2018-11-22T20:42:58.431Z,55.17
2018-11-22T20:45:27.545Z,51.13
2018-11-22T20:47:58.479Z,60.80
2018-11-22T20:50:27.726Z,56.77
2018-11-22T20:52:56.187Z,54.00
2018-11-22T20:55:26.075Z,47.33
2018-11-22T20:57:55.668Z,51.73
2018-11-22T21:00:25.528Z,60.43
2018-11-22T21:02:53.975Z,56.73
2018-11-22T21:05:23.151Z,57.47
2018-11-22T21:07:51.603Z,51.87
2018-11-22T21:10:21.477Z,58.47
2018-11-22T21:12:49.934Z,48.00
2018-11-22T21:15:20.483Z,56.77
2018-11-22T21:17:50.018Z,51.63
2018-11-22T21:20:19.861Z,54.73
2018-11-22T21:22:48.339Z,48.33
2018-11-22T21:25:18.119Z,49.87
2018-11-22T21:27:46.603Z,54.90
2018-11-22T21:30:17.662Z,53.73
2018-11-22T21:32:47.043Z,59.67
2018-11-22T21:35:16.202Z,54.67
2018-11-22T21:37:45.079Z,59.60
2018-11-22T21:40:14.720Z,59.13
2018-11-22T21:42:42.816Z,64.50
2018-11-22T21:45:13.871Z,64.90
2018-11-22T21:47:42.676Z,55.87
2018-11-22T21:50:12.503Z,56.53
2018-11-22T21:52:41.020Z,56.10
2018-11-22T21:55:12.052Z,55.83
2018-11-22T21:57:41.385Z,59.20
2018-11-22T22:00:17.440Z,54.00
2018-11-22T22:02:52.483Z,56.10
2018-11-22T22:05:15.481Z,58.67
2018-11-22T22:07:43.960Z,56.07
2018-11-22T22:10:12.509Z,60.90
2018-11-22T22:12:41.722Z,56.10
2018-11-22T22:15:13.455Z,54.67
2018-11-22T22:17:42.793Z,59.13
2018-11-22T22:20:14.246Z,54.97
2018-11-22T22:22:42.972Z,61.03
2018-11-22T22:25:13.734Z,57.50
2018-11-22T22:27:42.526Z,58.50
2018-11-22T22:30:14.573Z,47.90
2018-11-22T22:32:43.712Z,56.60
2018-11-22T22:35:12.200Z,62.10
2018-11-22T22:37:40.726Z,59.63
2018-11-22T22:40:12.790Z,56.00
2018-11-22T22:42:42.315Z,56.20
2018-11-22T22:45:11.215Z,53.10
2018-11-22T22:47:39.697Z,57.80
2018-11-22T22:50:10.689Z,56.20
2018-11-22T22:52:39.175Z,58.90
2018-11-22T22:55:08.200Z,62.87
2018-11-22T22:57:36.678Z,59.37
2018-11-22T23:00:08.044Z,59.23
2018-11-22T23:02:36.533Z,60.07
2018-11-22T23:05:05.884Z,74.37
2018-11-22T23:07:34.364Z,64.23
2018-11-22T23:10:02.826Z,65.37
2018-11-22T23:12:31.356Z,63.07
2018-11-22T23:14:59.811Z,65.63
2018-11-22T23:17:28.289Z,59.63
2018-11-22T23:19:56.768Z,62.43
2018-11-22T23:22:25.239Z,60.67
2018-11-22T23:24:53.712Z,63.73
2018-11-22T23:27:22.224Z,63.37
2018-11-22T23:29:50.707Z,61.37
2018-11-22T23:32:19.178Z,70.37
2018-11-22T23:34:47.640Z,51.40
2018-11-22T23:37:16.114Z,61.27
2018-11-22T23:39:44.570Z,63.53
2018-11-22T23:42:13.053Z,65.47
2018-11-22T23:44:41.498Z,54.70
2018-11-22T23:47:09.963Z,62.73
2018-11-22T23:49:38.413Z,58.23
2018-11-22T23:52:06.896Z,65.73
2018-11-22T23:54:35.339Z,60.60
2018-11-22T23:57:03.810Z,52.67
2018-11-22T23:59:32.261Z,65.30
